Kolin, Louisiana
Current Conditions -  °F | °C
As of 12:53 AM on Sunday 26 Oct 2014 (Local Time) from KESF Reporting Station
Clear Clear  
Wind Chill: 54°   Ceiling: Unl
Heat Index: 54°   Visibility: 10mi
Dew Point: 54°   Wind: 0mph
Humidity: 100%   Direction: NA
Pressure: 30.07"   Gusts: NA
Location:  31.3398°N, 92.3739°W
Report Text: KESF 260553Z AUTO 00000KT 10SM CLR 12/12 A3007 RMK AO2 SLP182 T01220122 10167 20117 402780056 58009
Loading
Personal Weather Stations






























Interactive Weather Map
Tropical Storm Tracking
New forecast layout! Learn more

10-Day Weather Forecast

Advertisements
Track Severe Weather on mobile